Saint Bernice, Indiana
Current Conditions -  °F | °C
As of 5:15 AM on Saturday 22 Nov 2014 (Local Time) from KPRG Reporting Station
Overcast Overcast  
Wind Chill: 30°   Ceiling: 9000
Heat Index: 38°   Visibility: 10mi
Dew Point: 30°   Wind: 14mph
Humidity: 73%   Direction: 170°S
Pressure: 30.17"   Gusts: NA
Location:  39.71°N, 87.52°W
Report Text: KPRG 221015Z AUTO 17012KT 10SM SCT050 OVC090 03/M01 A3017 RMK AO2 T00331011
Loading
Personal Weather Stations






























Interactive Weather Map New forecast layout! Learn more

10-Day Weather Forecast

Advertisements
Track Severe Weather on mobile